Time,TemperatureF,DewpointF,PressureIn,WindDirection,WindDirectionDegrees,WindSpeedMPH,WindSpeedGustMPH,Humidity,HourlyPrecipIn,Conditions,Clouds,dailyrainin,SoftwareType,DateUTC
2013-06-07 00:00:00,57.4,53.5,30.18,SE,135,1.3,1.3,87,0.00,,,0.00,WUHU21636XXSP,2013-06-06 22:00:00,
2013-06-07 00:05:00,57.0,53.2,30.18,SE,135,0.0,1.3,87,0.00,,,0.00,WUHU21636XXSP,2013-06-06 22:05:00,
2013-06-07 00:10:00,57.0,53.2,30.18,ESE,113,1.1,1.3,87,0.00,,,0.00,WUHU21636XXSP,2013-06-06 22:10:00,
2013-06-07 00:15:00,56.7,52.9,30.19,SE,135,0.0,1.1,87,0.00,,,0.00,WUHU21636XXSP,2013-06-06 22:15:00,
2013-06-07 00:20:00,56.5,52.7,30.19,SE,135,0.0,1.1,87,0.00,,,0.00,WUHU21636XXSP,2013-06-06 22:20:00,
2013-06-07 00:25:00,56.3,52.5,30.19,SE,135,0.0,0.0,87,0.00,,,0.00,WUHU21636XXSP,2013-06-06 22:25:00,
2013-06-07 00:30:00,56.1,52.6,30.19,ESE,113,0.4,0.4,88,0.00,,,0.00,WUHU21636XXSP,2013-06-06 22:30:00,
2013-06-07 00:35:00,55.9,52.4,30.18,ESE,113,1.6,1.6,88,0.00,,,0.00,WUHU21636XXSP,2013-06-06 22:35:00,
2013-06-07 00:40:00,55.9,52.4,30.18,SE,135,1.3,1.6,88,0.00,,,0.00,WUHU21636XXSP,2013-06-06 22:40:00,
2013-06-07 00:45:00,55.8,52.3,30.18,SE,135,1.6,1.6,88,0.00,,,0.00,WUHU21636XXSP,2013-06-06 22:45:00,
2013-06-07 00:50:00,55.6,52.1,30.18,SE,135,0.4,1.6,88,0.00,,,0.00,WUHU21636XXSP,2013-06-06 22:50:00,
2013-06-07 00:55:00,55.6,52.1,30.18,SE,135,0.0,1.6,88,0.00,,,0.00,WUHU21636XXSP,2013-06-06 22:55:00,
2013-06-07 01:00:00,55.2,51.7,30.18,SE,135,0.0,0.4,88,0.00,,,0.00,WUHU21636XXSP,2013-06-06 23:00:00,
2013-06-07 01:05:00,55.0,51.8,30.19,SE,135,0.9,0.9,89,0.00,,,0.00,WUHU21636XXSP,2013-06-06 23:05:00,
2013-06-07 01:10:00,55.0,51.8,30.19,ESE,113,2.9,2.9,89,0.00,,,0.00,WUHU21636XXSP,2013-06-06 23:10:00,
2013-06-07 01:15:00,55.0,51.8,30.19,SE,135,1.8,2.9,89,0.00,,,0.00,WUHU21636XXSP,2013-06-06 23:15:00,
2013-06-07 01:20:00,54.7,51.8,30.19,SE,135,0.0,2.9,90,0.00,,,0.00,WUHU21636XXSP,2013-06-06 23:20:00,
2013-06-07 01:25:00,54.7,51.8,30.19,SE,135,0.0,1.8,90,0.00,,,0.00,WUHU21636XXSP,2013-06-06 23:25:00,
2013-06-07 01:30:00,54.7,51.8,30.19,SE,135,0.0,0.0,90,0.00,,,0.00,WUHU21636XXSP,2013-06-06 23:30:00,
2013-06-07 01:35:00,54.5,51.6,30.19,ESE,113,0.0,0.0,90,0.00,,,0.00,WUHU21636XXSP,2013-06-06 23:35:00,
2013-06-07 01:40:00,54.5,51.6,30.19,SE,135,2.0,2.0,90,0.00,,,0.00,WUHU21636XXSP,2013-06-06 23:40:00,
2013-06-07 01:45:00,54.3,51.4,30.19,ESE,113,0.0,2.0,90,0.00,,,0.00,WUHU21636XXSP,2013-06-06 23:45:00,
2013-06-07 01:50:00,54.3,51.4,30.19,ESE,113,0.0,2.0,90,0.00,,,0.00,WUHU21636XXSP,2013-06-06 23:50:00,
2013-06-07 01:55:00,54.1,51.2,30.19,ESE,113,0.0,0.0,90,0.00,,,0.00,WUHU21636XXSP,2013-06-06 23:55:00,
2013-06-07 02:00:00,54.1,51.2,30.19,SE,135,1.6,1.6,90,0.00,,,0.00,WUHU21636XXSP,2013-06-07 00:00:00,
2013-06-07 02:05:00,54.0,51.1,30.19,SE,135,1.6,1.6,90,0.00,,,0.00,WUHU21636XXSP,2013-06-07 00:05:00,
2013-06-07 02:10:00,53.8,50.9,30.19,SE,135,1.1,1.6,90,0.00,,,0.00,WUHU21636XXSP,2013-06-07 00:10:00,
2013-06-07 02:15:00,53.8,51.2,30.19,SE,135,0.0,1.6,91,0.00,,,0.00,WUHU21636XXSP,2013-06-07 00:15:00,
2013-06-07 02:20:00,53.4,50.8,30.19,SE,135,0.0,1.1,91,0.00,,,0.00,WUHU21636XXSP,2013-06-07 00:20:00,
2013-06-07 02:25:00,53.4,50.8,30.19,SE,135,0.0,0.0,91,0.00,,,0.00,WUHU21636XXSP,2013-06-07 00:25:00,
2013-06-07 02:30:00,53.2,50.6,30.19,SE,135,0.0,0.0,91,0.00,,,0.00,WUHU21636XXSP,2013-06-07 00:30:00,
2013-06-07 02:35:00,53.2,50.3,30.18,West,270,0.0,0.0,90,0.00,,,0.00,WUHU21636XXSP,2013-06-07 00:35:00,
2013-06-07 02:40:00,53.1,50.5,30.18,West,270,0.0,0.0,91,0.00,,,0.00,WUHU21636XXSP,2013-06-07 00:40:00,
2013-06-07 02:45:00,52.9,50.3,30.19,West,270,0.0,0.0,91,0.00,,,0.00,WUHU21636XXSP,2013-06-07 00:45:00,
2013-06-07 02:50:00,52.9,50.3,30.19,SE,135,0.0,0.0,91,0.00,,,0.00,WUHU21636XXSP,2013-06-07 00:50:00,
2013-06-07 02:55:00,52.7,50.1,30.18,SE,135,0.0,0.0,91,0.00,,,0.00,WUHU21636XXSP,2013-06-07 00:55:00,
2013-06-07 03:00:00,52.7,50.1,30.19,SE,135,0.0,0.0,91,0.00,,,0.00,WUHU21636XXSP,2013-06-07 01:00:00,
2013-06-07 03:05:00,52.5,49.9,30.19,SE,135,0.9,0.9,91,0.00,,,0.00,WUHU21636XXSP,2013-06-07 01:05:00,
2013-06-07 03:10:00,52.5,49.9,30.19,SE,135,0.0,0.9,91,0.00,,,0.00,WUHU21636XXSP,2013-06-07 01:10:00,
2013-06-07 03:15:00,52.3,49.7,30.19,SE,135,0.0,0.9,91,0.00,,,0.00,WUHU21636XXSP,2013-06-07 01:15:00,
2013-06-07 03:20:00,52.3,49.7,30.19,SE,135,0.0,0.0,91,0.00,,,0.00,WUHU21636XXSP,2013-06-07 01:20:00,
2013-06-07 03:25:00,52.2,49.6,30.19,SE,135,0.0,0.0,91,0.00,,,0.00,WUHU21636XXSP,2013-06-07 01:25:00,
2013-06-07 03:30:00,52.2,49.6,30.19,SE,135,0.0,0.0,91,0.00,,,0.00,WUHU21636XXSP,2013-06-07 01:30:00,
2013-06-07 03:35:00,52.2,49.6,30.19,SE,135,0.0,0.0,91,0.00,,,0.00,WUHU21636XXSP,2013-06-07 01:35:00,
2013-06-07 03:40:00,52.3,49.7,30.19,SE,135,0.0,0.0,91,0.00,,,0.00,WUHU21636XXSP,2013-06-07 01:40:00,
2013-06-07 03:45:00,52.3,49.7,30.19,SE,135,0.0,0.0,91,0.00,,,0.00,WUHU21636XXSP,2013-06-07 01:45:00,
2013-06-07 03:50:00,52.3,49.7,30.19,SE,135,0.0,0.0,91,0.00,,,0.00,WUHU21636XXSP,2013-06-07 01:50:00,
2013-06-07 03:55:00,52.3,49.7,30.19,SE,135,0.0,0.0,91,0.00,,,0.00,WUHU21636XXSP,2013-06-07 01:55:00,
2013-06-07 04:00:00,52.3,50.0,30.19,SE,135,0.0,0.0,92,0.00,,,0.00,WUHU21636XXSP,2013-06-07 02:00:00,
2013-06-07 04:05:00,52.3,50.0,30.19,SE,135,0.9,0.9,92,0.00,,,0.00,WUHU21636XXSP,2013-06-07 02:05:00,
2013-06-07 04:10:00,52.5,50.2,30.19,SE,135,1.1,1.1,92,0.00,,,0.00,WUHU21636XXSP,2013-06-07 02:10:00,
2013-06-07 04:15:00,52.5,50.2,30.19,SE,135,0.0,1.1,92,0.00,,,0.00,WUHU21636XXSP,2013-06-07 02:15:00,
2013-06-07 04:20:00,52.5,50.2,30.18,SE,135,0.0,1.1,92,0.00,,,0.00,WUHU21636XXSP,2013-06-07 02:20:00,
2013-06-07 04:25:00,52.5,50.2,30.18,SE,135,0.0,0.0,92,0.00,,,0.00,WUHU21636XXSP,2013-06-07 02:25:00,
2013-06-07 04:30:00,52.5,50.2,30.18,SE,135,0.0,0.0,92,0.00,,,0.00,WUHU21636XXSP,2013-06-07 02:30:00,
2013-06-07 04:35:00,52.5,50.2,30.18,SE,135,0.0,0.0,92,0.00,,,0.00,WUHU21636XXSP,2013-06-07 02:35:00,
2013-06-07 04:40:00,52.5,50.2,30.18,SE,135,0.0,0.0,92,0.00,,,0.00,WUHU21636XXSP,2013-06-07 02:40:00,
2013-06-07 04:45:00,52.3,50.0,30.18,SE,135,0.0,0.0,92,0.00,,,0.00,WUHU21636XXSP,2013-06-07 02:45:00,
2013-06-07 04:50:00,52.3,50.0,30.18,SE,135,0.0,0.0,92,0.00,,,0.00,WUHU21636XXSP,2013-06-07 02:50:00,
2013-06-07 04:55:00,52.2,49.9,30.18,SE,135,0.0,0.0,92,0.00,,,0.00,WUHU21636XXSP,2013-06-07 02:55:00,
2013-06-07 05:00:00,52.0,49.7,30.18,SE,135,0.0,0.0,92,0.00,,,0.00,WUHU21636XXSP,2013-06-07 03:00:00,
2013-06-07 05:05:00,52.0,49.7,30.18,SE,135,0.0,0.0,92,0.00,,,0.00,WUHU21636XXSP,2013-06-07 03:05:00,
2013-06-07 05:10:00,52.0,49.7,30.18,SE,135,0.0,0.0,92,0.00,,,0.00,WUHU21636XXSP,2013-06-07 03:10:00,
2013-06-07 05:15:00,52.0,49.7,30.18,SE,135,0.0,0.0,92,0.00,,,0.00,WUHU21636XXSP,2013-06-07 03:15:00,
2013-06-07 05:20:00,51.8,49.5,30.18,SE,135,0.0,0.0,92,0.00,,,0.00,WUHU21636XXSP,2013-06-07 03:20:00,
2013-06-07 05:25:00,51.8,49.5,30.18,SE,135,0.0,0.0,92,0.00,,,0.00,WUHU21636XXSP,2013-06-07 03:25:00,
2013-06-07 05:30:00,52.0,49.7,30.18,ESE,113,0.0,0.0,92,0.00,,,0.00,WUHU21636XXSP,2013-06-07 03:30:00,
2013-06-07 05:35:00,52.0,49.7,30.18,ESE,113,0.0,0.0,92,0.00,,,0.00,WUHU21636XXSP,2013-06-07 03:35:00,
2013-06-07 05:40:00,52.2,49.9,30.18,SE,135,0.0,0.0,92,0.00,,,0.00,WUHU21636XXSP,2013-06-07 03:40:00,
2013-06-07 05:45:00,52.2,49.9,30.18,ESE,113,0.9,0.9,92,0.00,,,0.00,WUHU21636XXSP,2013-06-07 03:45:00,
2013-06-07 05:50:00,52.2,49.9,30.18,SE,135,0.7,0.9,92,0.00,,,0.00,WUHU21636XXSP,2013-06-07 03:50:00,
2013-06-07 05:55:00,52.2,49.9,30.18,SE,135,0.0,0.9,92,0.00,,,0.00,WUHU21636XXSP,2013-06-07 03:55:00,
2013-06-07 06:00:00,52.2,49.9,30.18,NW,315,0.0,0.7,92,0.00,,,0.00,WUHU21636XXSP,2013-06-07 04:00:00,
2013-06-07 06:05:00,52.2,49.9,30.18,NW,315,0.0,0.0,92,0.00,,,0.00,WUHU21636XXSP,2013-06-07 04:05:00,
2013-06-07 06:10:00,52.2,50.2,30.18,NW,315,0.0,0.0,93,0.00,,,0.00,WUHU21636XXSP,2013-06-07 04:10:00,
2013-06-07 06:15:00,52.3,50.3,30.18,NW,315,0.0,0.0,93,0.00,,,0.00,WUHU21636XXSP,2013-06-07 04:15:00,
2013-06-07 06:20:00,52.5,50.5,30.18,SE,135,0.0,0.0,93,0.00,,,0.00,WUHU21636XXSP,2013-06-07 04:20:00,
2013-06-07 06:25:00,52.5,50.5,30.18,SE,135,0.0,0.0,93,0.00,,,0.00,WUHU21636XXSP,2013-06-07 04:25:00,
2013-06-07 06:30:00,52.9,50.9,30.18,SE,135,0.7,0.7,93,0.00,,,0.00,WUHU21636XXSP,2013-06-07 04:30:00,
2013-06-07 06:35:00,53.2,51.2,30.18,SE,135,0.0,0.7,93,0.00,,,0.00,WUHU21636XXSP,2013-06-07 04:35:00,
2013-06-07 06:40:00,53.2,51.2,30.19,SE,135,0.0,0.7,93,0.00,,,0.00,WUHU21636XXSP,2013-06-07 04:40:00,
2013-06-07 06:45:00,53.4,51.4,30.18,SE,135,0.0,0.0,93,0.00,,,0.00,WUHU21636XXSP,2013-06-07 04:45:00,
2013-06-07 06:50:00,53.8,51.8,30.19,SE,135,0.0,0.0,93,0.00,,,0.00,WUHU21636XXSP,2013-06-07 04:50:00,
2013-06-07 06:55:00,54.0,52.0,30.18,WNW,293,0.0,0.0,93,0.00,,,0.00,WUHU21636XXSP,2013-06-07 04:55:00,
2013-06-07 07:00:00,54.1,52.1,30.18,NW,315,0.0,0.0,93,0.00,,,0.00,WUHU21636XXSP,2013-06-07 05:00:00,
2013-06-07 07:05:00,54.3,52.3,30.18,WNW,293,0.0,0.0,93,0.00,,,0.00,WUHU21636XXSP,2013-06-07 05:05:00,
2013-06-07 07:10:00,54.3,52.3,30.18,WNW,293,0.0,0.0,93,0.00,,,0.00,WUHU21636XXSP,2013-06-07 05:10:00,
2013-06-07 07:15:00,54.5,52.5,30.18,NW,315,0.0,0.0,93,0.00,,,0.00,WUHU21636XXSP,2013-06-07 05:15:00,
2013-06-07 07:20:00,54.7,52.7,30.18,NW,315,0.0,0.0,93,0.00,,,0.00,WUHU21636XXSP,2013-06-07 05:20:00,
2013-06-07 07:25:00,54.7,52.7,30.18,NW,315,0.0,0.0,93,0.00,,,0.00,WUHU21636XXSP,2013-06-07 05:25:00,
2013-06-07 07:30:00,54.7,52.7,30.18,WNW,293,0.0,0.0,93,0.00,,,0.00,WUHU21636XXSP,2013-06-07 05:30:00,
2013-06-07 07:35:00,55.0,53.0,30.19,WNW,293,0.0,0.0,93,0.00,,,0.00,WUHU21636XXSP,2013-06-07 05:35:00,
2013-06-07 07:40:00,55.0,53.0,30.19,NW,315,0.0,0.0,93,0.00,,,0.00,WUHU21636XXSP,2013-06-07 05:40:00,
2013-06-07 07:45:00,55.2,53.2,30.18,WNW,293,0.0,0.0,93,0.00,,,0.00,WUHU21636XXSP,2013-06-07 05:45:00,
2013-06-07 07:50:00,55.2,53.2,30.18,SE,135,0.0,0.0,93,0.00,,,0.00,WUHU21636XXSP,2013-06-07 05:50:00,
2013-06-07 07:55:00,55.2,53.2,30.18,NW,315,0.0,0.0,93,0.00,,,0.00,WUHU21636XXSP,2013-06-07 05:55:00,
2013-06-07 08:00:00,55.6,53.6,30.18,SE,135,0.0,0.0,93,0.00,,,0.00,WUHU21636XXSP,2013-06-07 06:00:00,
2013-06-07 08:05:00,55.6,53.6,30.18,SE,135,1.3,1.3,93,0.00,,,0.00,WUHU21636XXSP,2013-06-07 06:05:00,
2013-06-07 08:10:00,55.8,53.8,30.19,SE,135,0.0,1.3,93,0.00,,,0.00,WUHU21636XXSP,2013-06-07 06:10:00,
2013-06-07 08:15:00,55.9,53.9,30.19,SE,135,0.0,1.3,93,0.00,,,0.00,WUHU21636XXSP,2013-06-07 06:15:00,
2013-06-07 08:20:00,56.1,54.1,30.19,ESE,113,0.0,0.0,93,0.00,,,0.00,WUHU21636XXSP,2013-06-07 06:20:00,
2013-06-07 08:25:00,56.3,54.3,30.19,SE,135,0.9,0.9,93,0.00,,,0.00,WUHU21636XXSP,2013-06-07 06:25:00,
2013-06-07 08:30:00,56.5,54.5,30.19,SE,135,0.0,0.9,93,0.00,,,0.00,WUHU21636XXSP,2013-06-07 06:30:00,
2013-06-07 08:35:00,56.7,54.7,30.19,SE,135,0.0,0.9,93,0.00,,,0.00,WUHU21636XXSP,2013-06-07 06:35:00,
2013-06-07 08:40:00,56.8,54.8,30.19,NW,315,0.0,0.0,93,0.00,,,0.00,WUHU21636XXSP,2013-06-07 06:40:00,
2013-06-07 08:45:00,57.0,55.0,30.19,West,270,0.0,0.0,93,0.00,,,0.00,WUHU21636XXSP,2013-06-07 06:45:00,
2013-06-07 08:50:00,57.4,55.4,30.19,SE,135,1.3,1.3,93,0.00,,,0.00,WUHU21636XXSP,2013-06-07 06:50:00,
2013-06-07 08:55:00,57.7,55.7,30.19,SE,135,0.0,1.3,93,0.00,,,0.00,WUHU21636XXSP,2013-06-07 06:55:00,
2013-06-07 09:00:00,58.1,56.0,30.19,SE,135,0.0,1.3,93,0.00,,,0.00,WUHU21636XXSP,2013-06-07 07:00:00,
2013-06-07 09:05:00,58.5,56.4,30.19,NW,315,0.9,0.9,93,0.00,,,0.00,WUHU21636XXSP,2013-06-07 07:05:00,
2013-06-07 09:10:00,58.8,56.7,30.19,WNW,293,0.0,0.9,93,0.00,,,0.00,WUHU21636XXSP,2013-06-07 07:10:00,
2013-06-07 09:15:00,59.2,57.1,30.19,WNW,293,0.0,0.9,93,0.00,,,0.00,WUHU21636XXSP,2013-06-07 07:15:00,
2013-06-07 09:20:00,59.5,57.1,30.19,WSW,248,0.0,0.0,92,0.00,,,0.00,WUHU21636XXSP,2013-06-07 07:20:00,
2013-06-07 09:25:00,60.3,57.9,30.19,SE,135,0.0,0.0,92,0.00,,,0.00,WUHU21636XXSP,2013-06-07 07:25:00,
2013-06-07 09:30:00,60.4,58.0,30.19,SE,135,0.9,0.9,92,0.00,,,0.00,WUHU21636XXSP,2013-06-07 07:30:00,
2013-06-07 09:35:00,60.8,58.1,30.19,ESE,113,0.0,0.9,91,0.00,,,0.00,WUHU21636XXSP,2013-06-07 07:35:00,
2013-06-07 09:40:00,61.3,58.6,30.19,WNW,293,0.0,0.9,91,0.00,,,0.00,WUHU21636XXSP,2013-06-07 07:40:00,
2013-06-07 09:45:00,61.7,58.7,30.19,WNW,293,0.0,0.0,90,0.00,,,0.00,WUHU21636XXSP,2013-06-07 07:45:00,
2013-06-07 09:50:00,62.2,58.9,30.19,ESE,113,0.4,0.4,89,0.00,,,0.00,WUHU21636XXSP,2013-06-07 07:50:00,
2013-06-07 09:55:00,63.1,59.5,30.19,SE,135,0.0,0.4,88,0.00,,,0.00,WUHU21636XXSP,2013-06-07 07:55:00,
2013-06-07 10:00:00,63.5,58.6,30.19,WNW,293,0.9,0.9,84,0.00,,,0.00,WUHU21636XXSP,2013-06-07 08:00:00,
2013-06-07 10:05:00,64.2,58.0,30.19,ESE,113,0.0,0.9,80,0.00,,,0.00,WUHU21636XXSP,2013-06-07 08:05:00,
2013-06-07 10:10:00,64.6,58.0,30.18,NW,315,0.0,0.9,79,0.00,,,0.00,WUHU21636XXSP,2013-06-07 08:10:00,
2013-06-07 10:15:00,64.4,57.8,30.18,WNW,293,0.4,0.4,79,0.00,,,0.00,WUHU21636XXSP,2013-06-07 08:15:00,
2013-06-07 10:20:00,64.2,57.6,30.18,WNW,293,0.0,0.4,79,0.00,,,0.00,WUHU21636XXSP,2013-06-07 08:20:00,
2013-06-07 10:25:00,64.4,57.8,30.18,WNW,293,0.7,0.7,79,0.00,,,0.00,WUHU21636XXSP,2013-06-07 08:25:00,
2013-06-07 10:30:00,64.9,58.3,30.18,WNW,293,0.0,0.7,79,0.00,,,0.00,WUHU21636XXSP,2013-06-07 08:30:00,
2013-06-07 10:35:00,65.3,58.0,30.18,ESE,113,0.0,0.7,77,0.00,,,0.00,WUHU21636XXSP,2013-06-07 08:35:00,
2013-06-07 10:40:00,65.8,58.5,30.18,ESE,113,0.0,0.0,77,0.00,,,0.00,WUHU21636XXSP,2013-06-07 08:40:00,
2013-06-07 10:45:00,66.9,59.2,30.18,ESE,113,0.4,0.4,76,0.00,,,0.00,WUHU21636XXSP,2013-06-07 08:45:00,
2013-06-07 10:50:00,66.6,58.9,30.18,SE,135,0.0,0.4,76,0.00,,,0.00,WUHU21636XXSP,2013-06-07 08:50:00,
2013-06-07 10:55:00,66.7,58.6,30.18,ESE,113,3.4,3.4,75,0.00,,,0.00,WUHU21636XXSP,2013-06-07 08:55:00,
2013-06-07 11:00:00,66.9,58.8,30.18,WNW,293,0.0,3.4,75,0.00,,,0.00,WUHU21636XXSP,2013-06-07 09:00:00,
2013-06-07 11:05:00,67.6,58.8,30.18,NW,315,0.0,3.4,73,0.00,,,0.00,WUHU21636XXSP,2013-06-07 09:05:00,
2013-06-07 11:10:00,67.6,58.8,30.18,ESE,113,0.7,0.7,73,0.00,,,0.00,WUHU21636XXSP,2013-06-07 09:10:00,
2013-06-07 11:15:00,67.5,59.1,30.18,ESE,113,0.0,0.7,74,0.00,,,0.00,WUHU21636XXSP,2013-06-07 09:15:00,
2013-06-07 11:20:00,67.8,59.7,30.17,NE,45,0.9,0.9,75,0.00,,,0.00,WUHU21636XXSP,2013-06-07 09:20:00,
2013-06-07 11:25:00,68.2,59.4,30.18,NNW,338,0.0,0.9,73,0.00,,,0.00,WUHU21636XXSP,2013-06-07 09:25:00,
2013-06-07 11:30:00,69.4,60.9,30.18,ESE,113,0.0,0.9,74,0.00,,,0.00,WUHU21636XXSP,2013-06-07 09:30:00,
2013-06-07 11:35:00,70.2,60.5,30.17,ESE,113,0.9,0.9,71,0.00,,,0.00,WUHU21636XXSP,2013-06-07 09:35:00,
2013-06-07 11:46:00,69.6,59.7,30.18,ESE,112,0.9,0.9,70,0.00,,,0.00,WUHU21636XXSP,2013-06-07 09:46:00,
2013-06-07 11:51:00,69.6,60.1,30.18,ESE,112,0.4,0.9,72,0.00,,,0.00,WUHU21636XXSP,2013-06-07 09:51:00,
2013-06-07 11:56:00,70.3,60.4,30.18,ESE,112,1.6,1.6,71,0.00,,,0.00,WUHU21636XXSP,2013-06-07 09:56:00,
2013-06-07 12:01:00,70.3,60.1,30.18,SE,135,2.0,2.2,70,0.00,,,0.00,WUHU21636XXSP,2013-06-07 10:01:00,
2013-06-07 12:06:00,70.9,60.1,30.18,ESE,112,0.0,2.2,69,0.00,,,0.00,WUHU21636XXSP,2013-06-07 10:06:00,
2013-06-07 12:11:00,71.2,61.0,30.18,ESE,112,1.6,2.0,70,0.00,,,0.00,WUHU21636XXSP,2013-06-07 10:11:00,
2013-06-07 12:16:00,72.0,61.2,30.18,WNW,292,1.3,2.7,69,0.00,,,0.00,WUHU21636XXSP,2013-06-07 10:16:00,
2013-06-07 12:21:00,71.4,60.3,30.18,SSE,157,0.9,2.7,68,0.00,,,0.00,WUHU21636XXSP,2013-06-07 10:21:00,
2013-06-07 12:26:00,71.8,61.5,30.18,West,270,0.0,1.3,70,0.00,,,0.00,WUHU21636XXSP,2013-06-07 10:26:00,
2013-06-07 12:31:00,72.5,61.3,30.18,ESE,112,0.4,0.9,68,0.00,,,0.00,WUHU21636XXSP,2013-06-07 10:31:00,
2013-06-07 12:37:00,73.0,60.4,30.18,ESE,112,0.0,0.4,65,0.00,,,0.00,WUHU21636XXSP,2013-06-07 10:37:00,
2013-06-07 12:42:00,73.4,60.8,30.17,WNW,292,3.6,3.6,65,0.00,,,0.00,WUHU21636XXSP,2013-06-07 10:42:00,
2013-06-07 12:47:00,73.2,60.6,30.17,WNW,292,0.0,3.6,66,0.00,,,0.00,WUHU21636XXSP,2013-06-07 10:47:00,
2013-06-07 12:52:00,73.6,61.9,30.17,ESE,112,0.9,3.6,64,0.00,,,0.00,WUHU21636XXSP,2013-06-07 10:52:00,
2013-06-07 12:57:00,73.6,61.9,30.17,ESE,112,0.0,0.9,64,0.00,,,0.00,WUHU21636XXSP,2013-06-07 10:57:00,
2013-06-07 13:02:00,73.2,60.6,30.17,ESE,112,0.0,1.6,65,0.00,,,0.00,WUHU21636XXSP,2013-06-07 11:02:00,
2013-06-07 13:07:00,73.2,60.6,30.17,ESE,112,0.0,1.6,64,0.00,,,0.00,WUHU21636XXSP,2013-06-07 11:07:00,
2013-06-07 13:12:00,73.2,60.6,30.17,SE,135,0.0,1.3,64,0.00,,,0.00,WUHU21636XXSP,2013-06-07 11:12:00,
2013-06-07 13:15:00,73.2,60.5,30.17,ENE,68,0.0,1.3,64,0.00,,,0.00,WUHU21636XXSP,2013-06-07 11:15:00,
2013-06-07 13:20:00,73.8,61.1,30.17,NNW,338,1.6,1.6,64,0.00,,,0.00,WUHU21636XXSP,2013-06-07 11:20:00,
2013-06-07 13:25:00,73.8,61.1,30.16,NW,315,0.0,1.6,64,0.00,,,0.00,WUHU21636XXSP,2013-06-07 11:25:00,
2013-06-07 13:30:00,75.0,61.1,30.16,NNW,328,1.0,2.0,62,0.00,SCT,,0.00,WeatherDisplay:10.37,2013-06-07 11:30:00,
2013-06-07 13:35:00,74.1,60.5,30.16,SE,135,0.0,0.9,62,0.00,,,0.00,WUHU21636XXSP,2013-06-07 11:35:00,
2013-06-07 13:40:00,73.9,60.5,30.15,SE,135,0.0,1.0,63,0.00,SCT,,0.00,WeatherDisplay:10.37,2013-06-07 11:40:00,
2013-06-07 13:45:00,74.5,60.8,30.16,ESE,113,0.0,0.0,62,0.00,,,0.00,WUHU21636XXSP,2013-06-07 11:45:00,
2013-06-07 13:50:00,74.5,60.6,30.15,SE,124,2.0,2.0,62,0.00,SCT,,0.00,WeatherDisplay:10.37,2013-06-07 11:50:00,
2013-06-07 13:55:00,73.8,61.1,30.16,SW,225,1.3,2.0,64,0.00,,,0.00,WUHU21636XXSP,2013-06-07 11:55:00,
2013-06-07 14:00:00,74.5,61.1,30.15,South,173,0.0,2.0,63,0.00,SCT,,0.00,WeatherDisplay:10.37,2013-06-07 12:00:00,
2013-06-07 14:05:00,75.2,61.0,30.16,WNW,293,2.5,2.5,61,0.00,,,0.00,WUHU21636XXSP,2013-06-07 12:05:00,
2013-06-07 14:10:00,75.6,61.2,30.15,WNW,292,1.0,2.0,61,0.00,SCT,,0.00,WeatherDisplay:10.37,2013-06-07 12:10:00,
2013-06-07 14:15:00,76.3,62.1,30.16,WNW,293,2.0,2.5,61,0.00,,,0.00,WUHU21636XXSP,2013-06-07 12:15:00,
2013-06-07 14:20:00,76.1,61.2,30.14,WNW,297,1.0,2.0,60,0.00,SCT,,0.00,WeatherDisplay:10.37,2013-06-07 12:20:00,
2013-06-07 14:25:00,75.9,61.7,30.15,ESE,113,1.6,2.0,61,0.00,,,0.00,WUHU21636XXSP,2013-06-07 12:25:00,
2013-06-07 14:30:00,75.9,60.1,30.14,East,83,0.0,2.0,58,0.00,SCT,,0.00,WeatherDisplay:10.37,2013-06-07 12:30:00,
2013-06-07 14:35:00,76.6,61.9,30.15,WNW,293,2.9,2.9,60,0.00,,,0.00,WUHU21636XXSP,2013-06-07 12:35:00,
2013-06-07 14:40:00,76.3,60.9,30.14,West,278,0.0,3.0,59,0.00,SCT,,0.00,WeatherDisplay:10.37,2013-06-07 12:40:00,
2013-06-07 14:45:00,76.3,61.1,30.15,SE,135,0.4,2.9,59,0.00,,,0.00,WUHU21636XXSP,2013-06-07 12:45:00,
2013-06-07 14:50:00,76.6,61.2,30.14,SE,132,0.0,0.0,59,0.00,SCT,,0.00,WeatherDisplay:10.37,2013-06-07 12:50:00,
2013-06-07 14:55:00,76.3,61.6,30.15,WNW,293,1.3,1.3,60,0.00,,,0.00,WUHU21636XXSP,2013-06-07 12:55:00,
2013-06-07 15:00:00,75.9,61.5,30.14,WNW,292,1.0,1.0,61,0.00,SCT,,0.00,WeatherDisplay:10.37,2013-06-07 13:00:00,
2013-06-07 15:05:00,75.9,61.7,30.15,ESE,113,1.6,1.6,61,0.00,,,0.00,WUHU21636XXSP,2013-06-07 13:05:00,
2013-06-07 15:10:00,75.9,61.5,30.14,ESE,106,0.0,2.0,61,0.00,SCT,,0.00,WeatherDisplay:10.37,2013-06-07 13:10:00,
2013-06-07 15:15:00,76.6,61.9,30.14,NNW,338,0.0,1.6,60,0.00,,,0.00,WUHU21636XXSP,2013-06-07 13:15:00,
2013-06-07 15:20:00,77.0,61.6,30.14,NNW,347,0.0,0.0,59,0.00,SCT,,0.00,WeatherDisplay:10.37,2013-06-07 13:20:00,
2013-06-07 15:25:00,76.8,62.1,30.14,ESE,113,1.6,1.6,60,0.00,,,0.00,WUHU21636XXSP,2013-06-07 13:25:00,
2013-06-07 15:30:00,77.5,62.1,30.13,East,87,2.0,2.0,59,0.00,SCT,,0.00,WeatherDisplay:10.37,2013-06-07 13:30:00,
2013-06-07 15:35:00,77.4,62.6,30.14,NNW,338,0.0,2.5,60,0.00,,,0.00,WUHU21636XXSP,2013-06-07 13:35:00,
2013-06-07 15:40:00,76.6,61.2,30.13,East,85,2.0,2.0,59,0.00,SCT,,0.00,WeatherDisplay:10.37,2013-06-07 13:40:00,
2013-06-07 15:45:00,76.8,62.1,30.14,SSW,203,0.9,2.2,60,0.00,,,0.00,WUHU21636XXSP,2013-06-07 13:45:00,
2013-06-07 15:50:00,76.1,62.1,30.13,SE,136,0.0,2.0,62,0.00,FEW,,0.00,WeatherDisplay:10.37,2013-06-07 13:50:00,
2013-06-07 15:55:00,76.6,61.9,30.14,NW,315,1.6,1.6,60,0.00,,,0.00,WUHU21636XXSP,2013-06-07 13:55:00,
2013-06-07 16:00:00,76.8,61.9,30.13,North,353,1.0,2.0,60,0.00,FEW,,0.00,WeatherDisplay:10.37,2013-06-07 14:00:00,
2013-06-07 16:05:00,76.6,61.4,30.13,ESE,113,0.0,1.6,59,0.00,,,0.00,WUHU21636XXSP,2013-06-07 14:05:00,
2013-06-07 16:10:00,76.6,61.9,30.13,ESE,113,1.6,1.6,60,0.00,,,0.00,WUHU21636XXSP,2013-06-07 14:10:00,
2013-06-07 16:11:00,76.6,61.7,30.12,NNW,336,1.0,2.0,60,0.00,FEW,,0.00,WeatherDisplay:10.37,2013-06-07 14:11:00,
2013-06-07 16:15:00,77.5,61.8,30.13,SW,225,0.4,1.6,58,0.00,,,0.00,WUHU21636XXSP,2013-06-07 14:15:00,
2013-06-07 16:20:00,77.2,62.7,30.12,SE,138,0.0,2.0,61,0.00,FEW,,0.00,WeatherDisplay:10.37,2013-06-07 14:20:00,
2013-06-07 16:25:00,77.2,62.0,30.12,SE,135,0.9,0.9,59,0.00,,,0.00,WUHU21636XXSP,2013-06-07 14:25:00,
2013-06-07 16:30:00,76.8,61.9,30.11,WSW,245,1.0,1.0,60,0.00,FEW,,0.00,WeatherDisplay:10.37,2013-06-07 14:30:00,
2013-06-07 16:35:00,76.6,61.9,30.13,SSE,158,0.9,0.9,60,0.00,,,0.00,WUHU21636XXSP,2013-06-07 14:35:00,
2013-06-07 16:40:00,76.3,62.1,30.13,WNW,293,1.3,1.3,61,0.00,,,0.00,WUHU21636XXSP,2013-06-07 14:40:00,
2013-06-07 16:45:00,76.6,61.4,30.13,SE,135,2.9,2.9,59,0.00,,,0.00,WUHU21636XXSP,2013-06-07 14:45:00,
2013-06-07 16:50:00,76.6,61.7,30.12,SSE,158,0.0,3.0,60,0.00,FEW,,0.00,WeatherDisplay:10.37,2013-06-07 14:50:00,
2013-06-07 16:55:00,77.2,62.0,30.13,SE,135,0.7,2.9,59,0.00,,,0.00,WUHU21636XXSP,2013-06-07 14:55:00,
2013-06-07 17:00:00,76.6,60.8,30.12,SE,135,0.0,1.0,58,0.00,FEW,,0.00,WeatherDisplay:10.37,2013-06-07 15:00:00,
2013-06-07 17:05:00,76.8,61.1,30.13,SE,135,1.3,1.3,58,0.00,,,0.00,WUHU21636XXSP,2013-06-07 15:05:00,
2013-06-07 17:10:00,75.9,60.1,30.11,SE,137,0.0,1.0,58,0.00,FEW,,0.00,WeatherDisplay:10.37,2013-06-07 15:10:00,
2013-06-07 17:15:00,76.6,61.9,30.12,SW,225,0.0,1.3,60,0.00,,,0.00,WUHU21636XXSP,2013-06-07 15:15:00,
2013-06-07 17:20:00,77.7,61.3,30.11,South,189,0.0,0.0,57,0.00,FEW,,0.00,WeatherDisplay:10.37,2013-06-07 15:20:00,
2013-06-07 17:25:00,76.6,61.4,30.12,ESE,113,0.0,0.0,59,0.00,,,0.00,WUHU21636XXSP,2013-06-07 15:25:00,
2013-06-07 17:30:00,76.8,60.9,30.11,East,98,0.0,0.0,58,0.00,FEW,,0.00,WeatherDisplay:10.37,2013-06-07 15:30:00,
2013-06-07 17:35:00,77.4,61.2,30.11,East,90,0.0,0.0,57,0.00,,,0.00,WUHU21636XXSP,2013-06-07 15:35:00,
2013-06-07 17:40:00,77.4,60.9,30.10,ESE,119,0.0,0.0,57,0.00,FEW,,0.00,WeatherDisplay:10.37,2013-06-07 15:40:00,
2013-06-07 17:45:00,76.6,60.9,30.11,SSE,158,0.0,0.0,58,0.00,,,0.00,WUHU21636XXSP,2013-06-07 15:45:00,
2013-06-07 17:50:00,77.5,61.8,30.11,East,90,0.0,0.0,58,0.00,,,0.00,WUHU21636XXSP,2013-06-07 15:50:00,
2013-06-07 17:51:00,77.5,61.6,30.10,SE,133,0.0,0.0,58,0.00,FEW,,0.00,WeatherDisplay:10.37,2013-06-07 15:51:00,
2013-06-07 17:55:00,77.9,61.6,30.11,SE,135,1.3,1.3,57,0.00,,,0.00,WUHU21636XXSP,2013-06-07 15:55:00,
2013-06-07 18:00:00,77.7,61.5,30.11,NE,45,0.0,1.3,57,0.00,,,0.00,WUHU21636XXSP,2013-06-07 16:00:00,
2013-06-07 18:01:00,77.7,61.3,30.10,ESE,111,0.0,1.0,57,0.00,FEW,,0.00,WeatherDisplay:10.37,2013-06-07 16:01:00,
2013-06-07 18:05:00,78.1,61.3,30.11,SE,135,0.0,1.3,56,0.00,,,0.00,WUHU21636XXSP,2013-06-07 16:05:00,
2013-06-07 18:10:00,77.9,61.4,30.10,ESE,102,0.0,0.0,57,0.00,FEW,,0.00,WeatherDisplay:10.37,2013-06-07 16:10:00,
2013-06-07 18:15:00,77.5,61.3,30.11,ESE,113,0.0,0.0,57,0.00,,,0.00,WUHU21636XXSP,2013-06-07 16:15:00,
2013-06-07 18:20:00,77.4,60.9,30.10,SE,124,0.0,0.0,57,0.00,FEW,,0.00,WeatherDisplay:10.37,2013-06-07 16:20:00,
2013-06-07 18:25:00,77.2,62.0,30.11,South,180,0.0,0.0,59,0.00,,,0.00,WUHU21636XXSP,2013-06-07 16:25:00,
2013-06-07 18:30:00,77.2,61.7,30.10,SSE,162,0.0,0.0,59,0.00,FEW,,0.00,WeatherDisplay:10.37,2013-06-07 16:30:00,
2013-06-07 18:35:00,77.0,61.8,30.11,West,270,1.3,1.3,59,0.00,,,0.00,WUHU21636XXSP,2013-06-07 16:35:00,
2013-06-07 18:40:00,76.5,61.3,30.10,WNW,293,2.9,2.9,59,0.00,,,0.00,WUHU21636XXSP,2013-06-07 16:40:00,
2013-06-07 18:45:00,76.1,61.4,30.10,WNW,293,0.0,2.9,60,0.00,,,0.00,WUHU21636XXSP,2013-06-07 16:45:00,
2013-06-07 18:50:00,76.3,61.4,30.09,WNW,290,1.0,3.0,60,0.00,FEW,,0.00,WeatherDisplay:10.37,2013-06-07 16:50:00,
2013-06-07 18:55:00,75.9,61.2,30.10,WNW,293,0.0,0.7,60,0.00,,,0.00,WUHU21636XXSP,2013-06-07 16:55:00,
2013-06-07 19:00:00,75.7,61.3,30.10,WNW,290,1.0,1.0,61,0.00,FEW,,0.00,WeatherDisplay:10.37,2013-06-07 17:00:00,
2013-06-07 19:05:00,75.2,61.0,30.11,West,270,1.1,1.1,61,0.00,,,0.00,WUHU21636XXSP,2013-06-07 17:05:00,
2013-06-07 19:10:00,74.8,60.9,30.10,West,276,2.0,2.0,62,0.00,FEW,,0.00,WeatherDisplay:10.37,2013-06-07 17:10:00,
2013-06-07 19:15:00,74.7,61.5,30.11,WNW,293,0.7,1.8,63,0.00,,,0.00,WUHU21636XXSP,2013-06-07 17:15:00,
2013-06-07 19:20:00,74.8,62.3,30.10,WNW,292,0.0,2.0,65,0.00,FEW,,0.00,WeatherDisplay:10.37,2013-06-07 17:20:00,
2013-06-07 19:25:00,74.7,61.9,30.11,WNW,293,1.8,1.8,64,0.00,,,0.00,WUHU21636XXSP,2013-06-07 17:25:00,
2013-06-07 19:30:00,74.3,61.8,30.10,WNW,294,1.0,2.0,65,0.00,FEW,,0.00,WeatherDisplay:10.37,2013-06-07 17:30:00,
2013-06-07 19:35:00,74.8,62.5,30.11,NW,315,0.0,1.8,65,0.00,,,0.00,WUHU21636XXSP,2013-06-07 17:35:00,
2013-06-07 19:40:00,75.4,62.8,30.10,NW,309,0.0,1.0,65,0.00,FEW,,0.00,WeatherDisplay:10.37,2013-06-07 17:40:00,
2013-06-07 19:45:00,75.6,62.8,30.11,NW,315,2.0,2.0,64,0.00,,,0.00,WUHU21636XXSP,2013-06-07 17:45:00,
2013-06-07 19:50:00,75.7,62.9,30.11,NW,315,0.0,2.0,64,0.00,,,0.00,WUHU21636XXSP,2013-06-07 17:50:00,
2013-06-07 19:51:00,75.7,62.7,30.10,NW,308,0.0,2.0,64,0.00,CLR,,0.00,WeatherDisplay:10.37,2013-06-07 17:51:00,
2013-06-07 19:55:00,75.4,62.1,30.11,NW,315,0.9,2.0,63,0.00,,,0.00,WUHU21636XXSP,2013-06-07 17:55:00,
2013-06-07 20:00:00,75.0,61.8,30.11,NW,315,1.3,1.3,63,0.00,,,0.00,WUHU21636XXSP,2013-06-07 18:00:00,
2013-06-07 20:05:00,74.8,62.0,30.11,NW,315,0.0,1.3,64,0.00,,,0.00,WUHU21636XXSP,2013-06-07 18:05:00,
2013-06-07 20:10:00,74.5,61.5,30.10,NW,315,0.0,1.0,64,0.00,CLR,,0.00,WeatherDisplay:10.37,2013-06-07 18:10:00,
2013-06-07 20:15:00,74.3,62.0,30.10,NW,315,0.0,0.0,65,0.00,,,0.00,WUHU21636XXSP,2013-06-07 18:15:00,
2013-06-07 20:20:00,74.1,61.6,30.09,NW,315,0.0,0.0,65,0.00,FEW,,0.00,WeatherDisplay:10.37,2013-06-07 18:20:00,
2013-06-07 20:25:00,73.8,61.5,30.10,NW,315,0.0,0.0,65,0.00,,,0.00,WUHU21636XXSP,2013-06-07 18:25:00,
2013-06-07 20:30:00,73.2,61.4,30.10,WNW,293,0.0,0.0,66,0.00,,,0.00,WUHU21636XXSP,2013-06-07 18:30:00,
2013-06-07 20:35:00,72.7,61.7,30.10,WNW,293,0.0,0.0,68,0.00,,,0.00,WUHU21636XXSP,2013-06-07 18:35:00,
2013-06-07 20:40:00,72.1,61.4,30.09,WNW,294,0.0,0.0,69,0.00,FEW,,0.00,WeatherDisplay:10.37,2013-06-07 18:40:00,
2013-06-07 20:45:00,71.4,61.3,30.10,WNW,293,0.0,0.0,70,0.00,,,0.00,WUHU21636XXSP,2013-06-07 18:45:00,
2013-06-07 20:50:00,71.2,61.4,30.09,WNW,292,0.0,0.0,71,0.00,FEW,,0.00,WeatherDisplay:10.37,2013-06-07 18:50:00,
2013-06-07 20:55:00,70.7,61.4,30.11,WNW,293,0.0,0.0,72,0.00,,,0.00,WUHU21636XXSP,2013-06-07 18:55:00,
2013-06-07 21:00:00,70.2,61.3,30.11,WNW,293,0.0,0.0,73,0.00,,,0.00,WUHU21636XXSP,2013-06-07 19:00:00,
2013-06-07 21:05:00,69.8,61.3,30.11,WNW,293,0.0,0.0,74,0.00,,,0.00,WUHU21636XXSP,2013-06-07 19:05:00,
2013-06-07 21:10:00,69.4,60.8,30.10,WNW,292,0.0,0.0,74,0.00,FEW,,0.00,WeatherDisplay:10.37,2013-06-07 19:10:00,
2013-06-07 21:15:00,69.1,61.0,30.11,WNW,293,0.0,0.0,75,0.00,,,0.00,WUHU21636XXSP,2013-06-07 19:15:00,
2013-06-07 21:20:00,68.5,60.7,30.10,WNW,292,0.0,0.0,76,0.00,CLR,,0.00,WeatherDisplay:10.37,2013-06-07 19:20:00,
2013-06-07 21:25:00,68.4,60.7,30.11,WNW,293,0.0,0.0,76,0.00,,,0.00,WUHU21636XXSP,2013-06-07 19:25:00,
2013-06-07 21:30:00,67.8,60.3,30.11,WNW,292,0.0,0.0,77,0.00,CLR,,0.00,WeatherDisplay:10.37,2013-06-07 19:30:00,
2013-06-07 21:35:00,67.6,60.6,30.12,WNW,293,0.0,0.0,78,0.00,,,0.00,WUHU21636XXSP,2013-06-07 19:35:00,
2013-06-07 21:40:00,67.5,60.4,30.11,WNW,292,0.0,0.0,78,0.00,CLR,,0.00,WeatherDisplay:10.37,2013-06-07 19:40:00,
2013-06-07 21:45:00,66.9,60.3,30.12,WNW,293,0.0,0.0,79,0.00,,,0.00,WUHU21636XXSP,2013-06-07 19:45:00,
2013-06-07 21:50:00,66.7,60.4,30.11,WNW,292,0.0,0.0,80,0.00,CLR,,0.00,WeatherDisplay:10.37,2013-06-07 19:50:00,
2013-06-07 21:55:00,66.6,60.3,30.13,WNW,293,0.0,0.0,80,0.00,,,0.00,WUHU21636XXSP,2013-06-07 19:55:00,
2013-06-07 22:00:00,66.0,59.7,30.12,WNW,292,0.0,0.0,80,0.00,CLR,,0.00,WeatherDisplay:10.37,2013-06-07 20:00:00,
2013-06-07 22:05:00,65.8,59.9,30.13,SE,135,0.9,0.9,81,0.00,,,0.00,WUHU21636XXSP,2013-06-07 20:05:00,
2013-06-07 22:10:00,65.5,59.5,30.12,South,187,0.0,1.0,81,0.00,CLR,,0.00,WeatherDisplay:10.37,2013-06-07 20:10:00,
2013-06-07 22:15:00,65.3,59.4,30.13,SE,135,0.0,0.9,81,0.00,,,0.00,WUHU21636XXSP,2013-06-07 20:15:00,
2013-06-07 22:20:00,64.9,59.3,30.14,SE,135,0.0,0.0,82,0.00,,,0.00,WUHU21636XXSP,2013-06-07 20:20:00,
2013-06-07 22:25:00,64.8,59.2,30.14,SE,135,0.0,0.0,82,0.00,,,0.00,WUHU21636XXSP,2013-06-07 20:25:00,
2013-06-07 22:30:00,64.4,59.1,30.13,SE,135,0.0,0.0,83,0.00,CLR,,0.00,WeatherDisplay:10.37,2013-06-07 20:30:00,
2013-06-07 22:35:00,64.2,59.0,30.14,ESE,113,1.1,1.1,83,0.00,,,0.00,WUHU21636XXSP,2013-06-07 20:35:00,
2013-06-07 22:40:00,64.0,58.8,30.13,SE,124,0.0,1.0,83,0.00,CLR,,0.00,WeatherDisplay:10.37,2013-06-07 20:40:00,
2013-06-07 22:45:00,63.9,59.0,30.14,SE,135,0.0,1.1,84,0.00,,,0.00,WUHU21636XXSP,2013-06-07 20:45:00,
2013-06-07 22:50:00,63.7,58.8,30.13,SE,135,0.0,0.0,84,0.00,CLR,,0.00,WeatherDisplay:10.37,2013-06-07 20:50:00,
2013-06-07 22:55:00,63.3,58.4,30.13,SE,135,0.0,0.0,84,0.00,,,0.00,WUHU21636XXSP,2013-06-07 20:55:00,
2013-06-07 23:00:00,63.3,58.4,30.12,SE,135,0.0,0.0,84,0.00,CLR,,0.00,WeatherDisplay:10.37,2013-06-07 21:00:00,
2013-06-07 23:05:00,63.0,58.4,30.13,SE,135,1.8,1.8,85,0.00,,,0.00,WUHU21636XXSP,2013-06-07 21:05:00,
2013-06-07 23:10:00,62.8,58.2,30.13,SE,135,0.0,1.8,85,0.00,,,0.00,WUHU21636XXSP,2013-06-07 21:10:00,
2013-06-07 23:15:00,62.8,58.2,30.13,SE,135,0.4,1.8,85,0.00,,,0.00,WUHU21636XXSP,2013-06-07 21:15:00,
2013-06-07 23:20:00,62.4,57.8,30.13,SE,135,0.0,0.4,85,0.00,,,0.00,WUHU21636XXSP,2013-06-07 21:20:00,
2013-06-07 23:25:00,62.2,57.6,30.13,ESE,113,0.0,0.4,85,0.00,,,0.00,WUHU21636XXSP,2013-06-07 21:25:00,
2013-06-07 23:30:00,62.2,57.6,30.13,ESE,113,0.0,0.0,85,0.00,,,0.00,WUHU21636XXSP,2013-06-07 21:30:00,
2013-06-07 23:35:00,61.9,57.7,30.13,SE,135,0.0,0.0,86,0.00,,,0.00,WUHU21636XXSP,2013-06-07 21:35:00,
2013-06-07 23:40:00,61.7,57.5,30.13,SE,135,0.4,0.4,86,0.00,,,0.00,WUHU21636XXSP,2013-06-07 21:40:00,
2013-06-07 23:45:00,61.5,57.3,30.13,SE,135,0.0,0.4,86,0.00,,,0.00,WUHU21636XXSP,2013-06-07 21:45:00,
2013-06-07 23:50:00,61.3,57.1,30.13,ESE,113,0.0,0.4,86,0.00,,,0.00,WUHU21636XXSP,2013-06-07 21:50:00,
2013-06-07 23:55:00,61.2,57.0,30.13,SE,135,0.9,0.9,86,0.00,,,0.00,WUHU21636XXSP,2013-06-07 21:55:00,